Terminal Aerodrome Forecast
Issued by NWS

Home | Current Version | Previous Version | Text Only | Print | Product List | Glossary On
Versions: 1 2 3 4 5 6 7 8 9 10 11 12 13 14 15 16 17 18 19 20 21 22 23 24 25 26 27 28 29 30 31 32 33 34 35 36
000
FTUS44 KHGX 300521
TAFCXO
TAF
KCXO 300521Z 3006/3106 19010KT P6SM FEW024
      TEMPO 3006/3009 BKN018
     FM300900 21003KT P6SM OVC012
      TEMPO 3010/3013 4SM BR OVC008
     FM301500 19004KT P6SM BKN015
     FM301600 20007KT P6SM BKN025
     FM301800 19009KT P6SM SCT035
     FM310500 18006KT P6SM BKN022=

USA.gov is the U.S. government's official web portal to all federal, state and local government web resources and services.